»·PEaware :: N5491J KSBA-KOXR

N5491J :: KSBA-KOXR

FLIGHT INFORMATION

Flight Status: Arrived
Operator: Privately registered:
United States
More flights under this callsign
Pilot: David L. (16466)
Aircraft: CESSNA 172 SKYHAWK
(C172)
More flights by this aircraft type
Origin: KSBA Santa Barbara Mun
United States
Destination: KOXR Oxnard
United States
More flights between these airports :: More routes between these airports
Route: +
File this flight plan on PilotEdge
Remarks:
Altitude:
(Current/Filed)
1,500ft
Speed:
(Current/Filed)
0kts
Departed: 03-Sep-18 12:06 PM
Arrived: 03-Sep-18 01:04 PM
Distance/Time
Traveled:
34nm/0:58
Distance/Time
To Go:
Arrived

Flight Plot

Page will automatically refresh every two minutes.


Map Options




Map Legend


Flown Route
Filed Route
Departure Airport
Arrival Airport
Navaid (VOR, NDB)
Fix

Horizontal Profiles

Position Reports

Time Latitude Longitude Heading Altitude Ground
Speed
03-Sep-18 11:56 34.422664 -119.835593 340 10ft 0kts
03-Sep-18 11:58 34.422664 -119.835593 340 10ft 0kts
03-Sep-18 11:58 34.422664 -119.835593 340 10ft 0kts
03-Sep-18 11:59 34.422664 -119.835593 340 10ft 0kts
03-Sep-18 12:00 34.422667 -119.835594 340 10ft 1kts
03-Sep-18 12:01 34.424281 -119.835531 358 10ft 24kts
03-Sep-18 12:02 34.426370 -119.835618 0 10ft 0kts
03-Sep-18 12:03 34.426825 -119.835433 44 10ft 13kts
03-Sep-18 12:04 34.427086 -119.835183 26 10ft 0kts
03-Sep-18 12:05 34.427086 -119.835183 26 10ft 0kts
03-Sep-18 12:06 34.427826 -119.835163 316 10ft 15kts
03-Sep-18 12:07 34.427716 -119.843662 268 185ft 78kts
03-Sep-18 12:08 34.426979 -119.855582 261 742ft 76kts
03-Sep-18 12:09 34.425687 -119.867480 260 1248ft 77kts
03-Sep-18 12:10 34.424036 -119.880804 260 1589ft 86kts
03-Sep-18 12:11 34.413887 -119.885315 113 1989ft 94kts
03-Sep-18 12:12 34.411671 -119.871415 108 2457ft 92kts
03-Sep-18 12:13 34.407823 -119.857812 109 2764ft 103kts
03-Sep-18 12:14 34.403122 -119.842397 109 3068ft 106kts
03-Sep-18 12:15 34.398040 -119.825998 110 3411ft 106kts
03-Sep-18 12:16 34.392664 -119.808833 110 3499ft 119kts
03-Sep-18 12:17 34.387013 -119.791321 110 3499ft 115kts
03-Sep-18 12:18 34.381137 -119.772777 110 3499ft 114kts
03-Sep-18 12:19 34.376707 -119.756142 89 3497ft 113kts
03-Sep-18 12:20 34.377182 -119.738691 111 3518ft 113kts
03-Sep-18 12:21 34.372439 -119.722180 110 3516ft 113kts
03-Sep-18 12:22 34.366727 -119.705684 126 3591ft 108kts
03-Sep-18 12:23 34.354286 -119.697140 154 3618ft 107kts
03-Sep-18 12:24 34.347156 -119.681176 106 3543ft 114kts
03-Sep-18 12:25 34.342547 -119.664268 105 3500ft 115kts
03-Sep-18 12:26 34.337824 -119.646176 89 3497ft 114kts
03-Sep-18 12:27 34.340786 -119.627867 103 3521ft 113kts
03-Sep-18 12:28 34.334436 -119.606091 110 3499ft 113kts
03-Sep-18 12:29 34.328079 -119.586558 111 3499ft 113kts
03-Sep-18 12:30 34.321345 -119.566257 111 3499ft 113kts
03-Sep-18 12:31 34.314428 -119.545508 111 3499ft 113kts
03-Sep-18 12:32 34.307572 -119.524973 111 3499ft 113kts
03-Sep-18 12:33 34.300543 -119.503941 111 3499ft 113kts
03-Sep-18 12:34 34.293490 -119.482852 111 3499ft 113kts
03-Sep-18 12:35 34.286583 -119.462209 111 3499ft 113kts
03-Sep-18 12:36 34.279532 -119.441156 111 3499ft 113kts
03-Sep-18 12:37 34.282056 -119.420076 87 3546ft 109kts
03-Sep-18 12:38 34.269297 -119.409877 208 3457ft 116kts
03-Sep-18 12:39 34.256064 -119.424980 218 3564ft 110kts
03-Sep-18 12:40 34.241247 -119.438262 213 3575ft 109kts
03-Sep-18 12:41 34.225359 -119.451015 215 3376ft 114kts
03-Sep-18 12:42 34.210666 -119.466172 242 3070ft 109kts
03-Sep-18 12:43 34.207938 -119.485891 256 2993ft 103kts
03-Sep-18 12:44 34.205620 -119.502158 263 3056ft 91kts
03-Sep-18 12:45 34.211978 -119.517480 8 3015ft 99kts
03-Sep-18 12:46 34.211769 -119.504229 132 3073ft 91kts
03-Sep-18 12:47 34.202858 -119.492046 116 3067ft 94kts
03-Sep-18 12:48 34.202463 -119.475467 88 3053ft 97kts
03-Sep-18 12:49 34.202438 -119.458116 90 2902ft 102kts
03-Sep-18 12:50 34.202332 -119.442836 90 2611ft 94kts
03-Sep-18 12:51 34.202250 -119.429025 89 2344ft 93kts
03-Sep-18 12:52 34.202173 -119.414881 90 2074ft 94kts
03-Sep-18 12:53 34.202092 -119.400931 90 1812ft 95kts
03-Sep-18 12:54 34.202023 -119.385952 89 1702ft 96kts
03-Sep-18 12:55 34.201950 -119.370821 89 1699ft 95kts
03-Sep-18 12:56 34.201864 -119.356310 89 1699ft 94kts
03-Sep-18 12:57 34.201755 -119.339889 90 1699ft 94kts
03-Sep-18 12:58 34.201637 -119.321924 90 1690ft 95kts
03-Sep-18 12:59 34.201495 -119.304653 90 1453ft 80kts
03-Sep-18 13:00 34.201423 -119.287705 90 1197ft 95kts
03-Sep-18 13:01 34.201282 -119.269743 90 907ft 92kts
03-Sep-18 13:02 34.201129 -119.252116 91 624ft 92kts
03-Sep-18 13:03 34.200988 -119.235202 90 354ft 91kts
03-Sep-18 13:04 34.200859 -119.219835 89 139ft 63kts
03-Sep-18 13:05 34.200816 -119.209231 90 37ft 39kts
03-Sep-18 13:07 34.199965 -119.206893 134 37ft 0kts
03-Sep-18 13:08 34.199790 -119.206031 90 38ft 15kts
03-Sep-18 13:09 34.198756 -119.203317 179 40ft 2kts
03-Sep-18 13:10 34.198756 -119.203317 179 40ft 2kts

Navigation Log

Ident Type
1. KSBA Airport
2. KOXR Airport